createdAt,value
2023-05-19T00:11:45.808Z,3.33
2023-05-19T00:26:49.095Z,3.73
2023-05-19T00:41:51.850Z,3.27
2023-05-19T00:56:56.990Z,3.30
2023-05-19T01:12:01.502Z,3.40
2023-05-19T01:27:35.593Z,3.60
2023-05-19T01:42:40.292Z,4.07
2023-05-19T01:57:51.452Z,4.30
2023-05-19T02:12:58.957Z,4.17
2023-05-19T02:28:01.953Z,4.67
2023-05-19T02:43:06.515Z,4.43
2023-05-19T02:58:13.268Z,4.40
2023-05-19T03:13:17.367Z,4.53
2023-05-19T03:28:20.103Z,4.33
2023-05-19T03:43:22.657Z,3.93
2023-05-19T03:58:34.346Z,4.40
2023-05-19T04:13:37.691Z,5.90
2023-05-19T04:28:42.455Z,8.67
2023-05-19T04:43:45.041Z,10.23
2023-05-19T04:58:50.143Z,4.17
2023-05-19T05:13:53.967Z,3.87
2023-05-19T05:28:56.876Z,4.17
2023-05-19T05:44:00.926Z,4.33
2023-05-19T05:59:05.761Z,4.20
2023-05-19T06:14:09.350Z,4.40
2023-05-19T06:29:41.132Z,4.00
2023-05-19T06:44:44.717Z,4.53
2023-05-19T06:59:48.512Z,4.20
2023-05-19T07:14:51.660Z,4.40
2023-05-19T07:29:55.150Z,4.47
2023-05-19T07:44:58.092Z,3.60
2023-05-19T08:00:02.007Z,3.57
2023-05-19T08:15:14.793Z,3.33
2023-05-19T08:30:18.969Z,2.50
2023-05-19T08:45:21.900Z,3.20
2023-05-19T09:00:27.115Z,2.70
2023-05-19T09:15:32.047Z,3.27
2023-05-19T09:30:35.945Z,2.30
2023-05-19T09:45:39.581Z,2.33
2023-05-19T10:00:42.924Z,2.80
2023-05-19T10:15:58.267Z,2.60
2023-05-19T10:31:05.120Z,2.40
2023-05-19T10:46:08.196Z,2.70
2023-05-19T11:01:17.340Z,2.40
2023-05-19T11:16:30.796Z,2.13
2023-05-19T11:31:36.466Z,1.97
2023-05-19T11:46:40.153Z,2.20
2023-05-19T12:01:42.594Z,1.97
2023-05-19T12:16:45.616Z,2.20
2023-05-19T12:31:49.212Z,2.47
2023-05-19T12:46:52.338Z,2.30
2023-05-19T13:01:58.712Z,1.90
2023-05-19T13:17:01.285Z,2.43
2023-05-19T13:32:04.170Z,2.00
2023-05-19T13:47:06.611Z,2.27
2023-05-19T14:02:09.582Z,2.30
2023-05-19T14:17:12.502Z,1.80
2023-05-19T14:32:14.979Z,1.63
2023-05-19T14:47:17.537Z,2.07
2023-05-19T15:02:20.144Z,2.10
2023-05-19T15:17:22.733Z,2.00
2023-05-19T15:32:25.507Z,2.23
2023-05-19T15:47:28.268Z,2.03
2023-05-19T16:02:31.367Z,2.00
2023-05-19T16:17:34.751Z,2.07
2023-05-19T16:32:37.623Z,1.77
2023-05-19T16:47:40.193Z,2.10
2023-05-19T17:02:42.904Z,1.80
2023-05-19T17:17:45.646Z,1.70
2023-05-19T17:32:48.562Z,1.63
2023-05-19T17:47:51.547Z,1.90
2023-05-19T18:02:54.460Z,1.70
2023-05-19T18:17:57.187Z,2.00
2023-05-19T18:33:04.006Z,1.70
2023-05-19T18:48:08.030Z,1.83
2023-05-19T19:03:12.483Z,1.70
2023-05-19T19:18:15.914Z,1.73
2023-05-19T19:33:21.123Z,2.00
2023-05-19T19:48:25.992Z,1.70
2023-05-19T20:03:28.812Z,1.70
2023-05-19T20:18:32.302Z,1.90
2023-05-19T20:33:35.467Z,1.80
2023-05-19T20:48:38.114Z,2.20
2023-05-19T21:03:41.689Z,2.27
2023-05-19T21:18:44.902Z,1.90
2023-05-19T21:33:47.398Z,1.97
2023-05-19T21:48:49.868Z,1.87
2023-05-19T22:03:53.281Z,1.90
2023-05-19T22:18:56.872Z,1.87
2023-05-19T22:34:00.043Z,1.83
2023-05-19T22:49:03.088Z,2.00
2023-05-19T23:04:06.260Z,2.00
2023-05-19T23:19:08.833Z,2.40
2023-05-19T23:34:11.425Z,1.87
2023-05-19T23:49:14.591Z,2.40
